sensor_id;sensor_type;location;lat;lon;timestamp;temperature;humidity
20182;DHT22;10250;50.756;6.172;2023-01-08T00:00:24;10.90;59.90
20182;DHT22;10250;50.756;6.172;2023-01-08T00:02:25;10.80;30.50
20182;DHT22;10250;50.756;6.172;2023-01-08T00:04:26;11.00;1.00
20182;DHT22;10250;50.756;6.172;2023-01-08T00:06:26;10.80;83.00
20182;DHT22;10250;50.756;6.172;2023-01-08T00:08:28;11.00;1.00
20182;DHT22;10250;50.756;6.172;2023-01-08T00:10:29;11.10;62.10
20182;DHT22;10250;50.756;6.172;2023-01-08T00:12:29;11.10;1.00
20182;DHT22;10250;50.756;6.172;2023-01-08T00:14:30;11.10;1.00
20182;DHT22;10250;50.756;6.172;2023-01-08T00:16:31;11.00;1.00
20182;DHT22;10250;50.756;6.172;2023-01-08T00:18:31;11.00;1.00
20182;DHT22;10250;50.756;6.172;2023-01-08T00:20:32;11.10;12.00
20182;DHT22;10250;50.756;6.172;2023-01-08T00:22:33;11.10;1.00
20182;DHT22;10250;50.756;6.172;2023-01-08T00:24:33;11.10;1.00
20182;DHT22;10250;50.756;6.172;2023-01-08T00:26:34;10.90;1.00
20182;DHT22;10250;50.756;6.172;2023-01-08T00:28:35;11.00;27.50
20182;DHT22;10250;50.756;6.172;2023-01-08T00:30:36;11.00;1.00
20182;DHT22;10250;50.756;6.172;2023-01-08T00:32:36;10.80;92.80
20182;DHT22;10250;50.756;6.172;2023-01-08T00:34:37;10.80;99.90
20182;DHT22;10250;50.756;6.172;2023-01-08T00:36:38;10.90;99.90
20182;DHT22;10250;50.756;6.172;2023-01-08T00:38:38;10.80;99.90
20182;DHT22;10250;50.756;6.172;2023-01-08T00:40:39;10.90;11.00
20182;DHT22;10250;50.756;6.172;2023-01-08T00:42:39;10.90;99.90
20182;DHT22;10250;50.756;6.172;2023-01-08T00:44:40;11.00;1.00
20182;DHT22;10250;50.756;6.172;2023-01-08T00:46:41;10.90;1.00
20182;DHT22;10250;50.756;6.172;2023-01-08T00:48:41;10.90;1.00
20182;DHT22;10250;50.756;6.172;2023-01-08T00:50:42;10.80;1.00
20182;DHT22;10250;50.756;6.172;2023-01-08T00:52:42;10.90;1.00
20182;DHT22;10250;50.756;6.172;2023-01-08T00:54:43;11.10;1.00
20182;DHT22;10250;50.756;6.172;2023-01-08T00:56:43;11.00;1.00
20182;DHT22;10250;50.756;6.172;2023-01-08T00:58:44;11.10;1.00
20182;DHT22;10250;50.756;6.172;2023-01-08T01:00:44;11.10;1.00
20182;DHT22;10250;50.756;6.172;2023-01-08T01:02:45;11.10;1.00
20182;DHT22;10250;50.756;6.172;2023-01-08T01:04:45;11.00;1.00
20182;DHT22;10250;50.756;6.172;2023-01-08T01:06:46;11.10;1.00
20182;DHT22;10250;50.756;6.172;2023-01-08T01:08:47;11.10;1.00
20182;DHT22;10250;50.756;6.172;2023-01-08T01:10:48;11.10;1.00
20182;DHT22;10250;50.756;6.172;2023-01-08T01:12:48;11.00;1.00
20182;DHT22;10250;50.756;6.172;2023-01-08T01:14:49;11.00;1.00
20182;DHT22;10250;50.756;6.172;2023-01-08T01:16:50;11.00;1.00
20182;DHT22;10250;50.756;6.172;2023-01-08T01:18:51;10.90;1.00
20182;DHT22;10250;50.756;6.172;2023-01-08T01:20:52;11.10;1.00
20182;DHT22;10250;50.756;6.172;2023-01-08T01:22:52;11.00;1.00
20182;DHT22;10250;50.756;6.172;2023-01-08T01:24:53;11.20;1.00
20182;DHT22;10250;50.756;6.172;2023-01-08T01:26:53;11.20;1.00
20182;DHT22;10250;50.756;6.172;2023-01-08T01:28:56;11.00;1.00
20182;DHT22;10250;50.756;6.172;2023-01-08T01:30:57;11.00;1.00
20182;DHT22;10250;50.756;6.172;2023-01-08T01:32:58;11.10;1.00
20182;DHT22;10250;50.756;6.172;2023-01-08T01:34:58;10.90;1.00
20182;DHT22;10250;50.756;6.172;2023-01-08T01:36:59;10.90;1.00
20182;DHT22;10250;50.756;6.172;2023-01-08T01:39:00;11.10;1.00
20182;DHT22;10250;50.756;6.172;2023-01-08T01:41:03;11.10;1.00
20182;DHT22;10250;50.756;6.172;2023-01-08T01:43:04;11.00;1.00
20182;DHT22;10250;50.756;6.172;2023-01-08T01:45:23;11.10;1.00
20182;DHT22;10250;50.756;6.172;2023-01-08T01:47:26;11.10;1.00
20182;DHT22;10250;50.756;6.172;2023-01-08T01:49:28;11.00;1.00
20182;DHT22;10250;50.756;6.172;2023-01-08T01:51:32;11.00;1.00
20182;DHT22;10250;50.756;6.172;2023-01-08T01:53:34;11.00;1.00
20182;DHT22;10250;50.756;6.172;2023-01-08T01:55:37;11.00;1.00
20182;DHT22;10250;50.756;6.172;2023-01-08T01:57:39;11.00;1.00
20182;DHT22;10250;50.756;6.172;2023-01-08T01:59:41;11.10;1.00
20182;DHT22;10250;50.756;6.172;2023-01-08T02:01:44;11.20;1.00
20182;DHT22;10250;50.756;6.172;2023-01-08T02:03:45;11.20;1.00
20182;DHT22;10250;50.756;6.172;2023-01-08T02:08:10;11.30;1.00
20182;DHT22;10250;50.756;6.172;2023-01-08T02:10:13;11.30;1.00
20182;DHT22;10250;50.756;6.172;2023-01-08T02:14:28;11.10;1.00
20182;DHT22;10250;50.756;6.172;2023-01-08T02:18:47;11.00;1.00
20182;DHT22;10250;50.756;6.172;2023-01-08T02:20:55;11.00;1.00
20182;DHT22;10250;50.756;6.172;2023-01-08T02:27:53;11.10;1.00
20182;DHT22;10250;50.756;6.172;2023-01-08T02:29:56;11.10;1.00
20182;DHT22;10250;50.756;6.172;2023-01-08T02:31:57;11.00;1.00
20182;DHT22;10250;50.756;6.172;2023-01-08T02:33:58;11.00;1.00
20182;DHT22;10250;50.756;6.172;2023-01-08T02:38:18;11.10;1.00
20182;DHT22;10250;50.756;6.172;2023-01-08T02:40:29;11.10;1.00
20182;DHT22;10250;50.756;6.172;2023-01-08T02:46:59;11.10;1.00
20182;DHT22;10250;50.756;6.172;2023-01-08T02:49:03;11.00;1.00
20182;DHT22;10250;50.756;6.172;2023-01-08T02:53:40;11.00;1.00
20182;DHT22;10250;50.756;6.172;2023-01-08T02:55:45;11.00;1.00
20182;DHT22;10250;50.756;6.172;2023-01-08T02:57:48;11.20;1.00
20182;DHT22;10250;50.756;6.172;2023-01-08T02:59:49;11.20;1.00
20182;DHT22;10250;50.756;6.172;2023-01-08T03:01:51;11.10;1.00
20182;DHT22;10250;50.756;6.172;2023-01-08T03:03:55;11.20;99.90
20182;DHT22;10250;50.756;6.172;2023-01-08T03:06:01;11.20;1.00
20182;DHT22;10250;50.756;6.172;2023-01-08T03:08:03;11.10;99.90
20182;DHT22;10250;50.756;6.172;2023-01-08T03:10:04;11.20;1.00
20182;DHT22;10250;50.756;6.172;2023-01-08T03:12:14;11.10;99.90
20182;DHT22;10250;50.756;6.172;2023-01-08T03:14:26;11.00;1.00
20182;DHT22;10250;50.756;6.172;2023-01-08T03:16:59;11.00;1.00
20182;DHT22;10250;50.756;6.172;2023-01-08T03:19:08;11.10;1.00
20182;DHT22;10250;50.756;6.172;2023-01-08T03:21:11;11.10;1.00
20182;DHT22;10250;50.756;6.172;2023-01-08T03:23:13;11.10;1.00
20182;DHT22;10250;50.756;6.172;2023-01-08T03:25:17;11.10;1.00
20182;DHT22;10250;50.756;6.172;2023-01-08T03:27:25;11.10;1.00
20182;DHT22;10250;50.756;6.172;2023-01-08T03:29:30;11.10;1.00
20182;DHT22;10250;50.756;6.172;2023-01-08T03:31:33;11.10;1.00
20182;DHT22;10250;50.756;6.172;2023-01-08T03:33:35;11.10;1.00
20182;DHT22;10250;50.756;6.172;2023-01-08T03:35:40;11.00;1.00
20182;DHT22;10250;50.756;6.172;2023-01-08T03:37:46;11.00;1.00
20182;DHT22;10250;50.756;6.172;2023-01-08T03:39:56;10.90;1.00
20182;DHT22;10250;50.756;6.172;2023-01-08T03:42:01;11.00;1.00
20182;DHT22;10250;50.756;6.172;2023-01-08T03:44:04;10.90;1.00
20182;DHT22;10250;50.756;6.172;2023-01-08T03:46:14;10.90;1.00
20182;DHT22;10250;50.756;6.172;2023-01-08T03:48:17;11.00;1.00
20182;DHT22;10250;50.756;6.172;2023-01-08T03:50:22;11.00;3.40
20182;DHT22;10250;50.756;6.172;2023-01-08T03:52:29;11.00;1.00
20182;DHT22;10250;50.756;6.172;2023-01-08T03:54:32;11.00;57.40
20182;DHT22;10250;50.756;6.172;2023-01-08T03:56:33;10.90;99.90
20182;DHT22;10250;50.756;6.172;2023-01-08T03:58:34;10.90;77.50
20182;DHT22;10250;50.756;6.172;2023-01-08T04:00:34;10.90;34.70
20182;DHT22;10250;50.756;6.172;2023-01-08T04:02:35;10.90;61.00
20182;DHT22;10250;50.756;6.172;2023-01-08T04:04:36;10.90;99.90
20182;DHT22;10250;50.756;6.172;2023-01-08T04:06:36;10.90;99.90
20182;DHT22;10250;50.756;6.172;2023-01-08T04:08:37;10.80;99.90
20182;DHT22;10250;50.756;6.172;2023-01-08T04:10:37;10.80;1.00
20182;DHT22;10250;50.756;6.172;2023-01-08T04:12:41;10.80;1.00
20182;DHT22;10250;50.756;6.172;2023-01-08T04:14:42;10.90;1.00
20182;DHT22;10250;50.756;6.172;2023-01-08T04:16:42;10.80;99.90
20182;DHT22;10250;50.756;6.172;2023-01-08T04:18:43;10.80;1.00
20182;DHT22;10250;50.756;6.172;2023-01-08T04:20:44;10.90;1.00
20182;DHT22;10250;50.756;6.172;2023-01-08T04:22:45;10.90;99.90
20182;DHT22;10250;50.756;6.172;2023-01-08T04:24:46;10.80;99.90
20182;DHT22;10250;50.756;6.172;2023-01-08T04:26:47;10.90;99.90
20182;DHT22;10250;50.756;6.172;2023-01-08T04:28:47;11.00;99.90
20182;DHT22;10250;50.756;6.172;2023-01-08T04:30:48;10.90;99.90
20182;DHT22;10250;50.756;6.172;2023-01-08T04:32:48;10.80;99.90
20182;DHT22;10250;50.756;6.172;2023-01-08T04:34:49;10.70;1.00
20182;DHT22;10250;50.756;6.172;2023-01-08T04:36:49;10.70;1.00
20182;DHT22;10250;50.756;6.172;2023-01-08T04:38:50;10.80;99.90
20182;DHT22;10250;50.756;6.172;2023-01-08T04:40:55;10.90;99.90
20182;DHT22;10250;50.756;6.172;2023-01-08T04:42:56;10.80;99.90
20182;DHT22;10250;50.756;6.172;2023-01-08T04:44:57;10.70;99.90
20182;DHT22;10250;50.756;6.172;2023-01-08T04:46:58;10.80;1.00
20182;DHT22;10250;50.756;6.172;2023-01-08T04:48:58;10.70;11.10
20182;DHT22;10250;50.756;6.172;2023-01-08T04:51:00;10.90;1.00
20182;DHT22;10250;50.756;6.172;2023-01-08T04:53:01;10.90;1.00
20182;DHT22;10250;50.756;6.172;2023-01-08T04:55:01;10.80;1.00
20182;DHT22;10250;50.756;6.172;2023-01-08T04:57:02;10.60;1.00
20182;DHT22;10250;50.756;6.172;2023-01-08T04:59:03;10.60;99.90
20182;DHT22;10250;50.756;6.172;2023-01-08T05:01:17;10.70;1.00
20182;DHT22;10250;50.756;6.172;2023-01-08T05:03:18;10.80;1.00
20182;DHT22;10250;50.756;6.172;2023-01-08T05:05:18;10.60;1.00
20182;DHT22;10250;50.756;6.172;2023-01-08T05:07:21;10.60;1.00
20182;DHT22;10250;50.756;6.172;2023-01-08T05:09:22;10.70;12.40
20182;DHT22;10250;50.756;6.172;2023-01-08T05:11:25;10.90;1.00
20182;DHT22;10250;50.756;6.172;2023-01-08T05:13:26;10.80;1.00
20182;DHT22;10250;50.756;6.172;2023-01-08T05:15:27;10.90;1.00
20182;DHT22;10250;50.756;6.172;2023-01-08T05:17:27;11.00;1.00
20182;DHT22;10250;50.756;6.172;2023-01-08T05:19:28;10.90;1.00
20182;DHT22;10250;50.756;6.172;2023-01-08T05:21:29;10.80;1.00
20182;DHT22;10250;50.756;6.172;2023-01-08T05:23:30;10.90;1.00
20182;DHT22;10250;50.756;6.172;2023-01-08T05:25:31;10.80;1.00
20182;DHT22;10250;50.756;6.172;2023-01-08T05:27:31;10.70;1.00
20182;DHT22;10250;50.756;6.172;2023-01-08T05:29:32;10.60;1.00
20182;DHT22;10250;50.756;6.172;2023-01-08T05:31:32;10.50;1.00
20182;DHT22;10250;50.756;6.172;2023-01-08T05:33:33;10.70;1.00
20182;DHT22;10250;50.756;6.172;2023-01-08T05:35:34;10.70;1.00
20182;DHT22;10250;50.756;6.172;2023-01-08T05:37:35;10.80;1.00
20182;DHT22;10250;50.756;6.172;2023-01-08T05:39:36;10.70;1.00
20182;DHT22;10250;50.756;6.172;2023-01-08T05:41:37;10.70;1.00
20182;DHT22;10250;50.756;6.172;2023-01-08T05:43:38;10.70;1.00
20182;DHT22;10250;50.756;6.172;2023-01-08T05:45:38;10.60;1.00
20182;DHT22;10250;50.756;6.172;2023-01-08T05:47:39;10.60;1.00
20182;DHT22;10250;50.756;6.172;2023-01-08T05:49:39;10.70;1.00
20182;DHT22;10250;50.756;6.172;2023-01-08T05:51:40;10.60;1.00
20182;DHT22;10250;50.756;6.172;2023-01-08T05:53:40;10.70;1.00
20182;DHT22;10250;50.756;6.172;2023-01-08T05:55:41;10.80;1.00
20182;DHT22;10250;50.756;6.172;2023-01-08T05:57:42;10.80;1.00
20182;DHT22;10250;50.756;6.172;2023-01-08T05:59:42;10.60;1.00
20182;DHT22;10250;50.756;6.172;2023-01-08T06:01:43;10.80;1.00
20182;DHT22;10250;50.756;6.172;2023-01-08T06:03:43;10.80;1.00
20182;DHT22;10250;50.756;6.172;2023-01-08T06:05:44;10.90;1.00
20182;DHT22;10250;50.756;6.172;2023-01-08T06:07:45;10.80;1.00
20182;DHT22;10250;50.756;6.172;2023-01-08T06:09:45;10.70;1.00
20182;DHT22;10250;50.756;6.172;2023-01-08T06:11:46;10.60;85.00
20182;DHT22;10250;50.756;6.172;2023-01-08T06:13:46;10.60;1.00
20182;DHT22;10250;50.756;6.172;2023-01-08T06:15:47;10.40;1.00
20182;DHT22;10250;50.756;6.172;2023-01-08T06:17:47;10.40;1.00
20182;DHT22;10250;50.756;6.172;2023-01-08T06:19:48;10.40;1.00
20182;DHT22;10250;50.756;6.172;2023-01-08T06:21:48;10.40;1.00
20182;DHT22;10250;50.756;6.172;2023-01-08T06:23:49;10.20;99.90
20182;DHT22;10250;50.756;6.172;2023-01-08T06:25:54;10.10;99.90
20182;DHT22;10250;50.756;6.172;2023-01-08T06:27:55;10.20;1.00
20182;DHT22;10250;50.756;6.172;2023-01-08T06:29:56;10.20;99.90
20182;DHT22;10250;50.756;6.172;2023-01-08T06:31:56;10.10;99.90
20182;DHT22;10250;50.756;6.172;2023-01-08T06:33:57;10.10;1.00
20182;DHT22;10250;50.756;6.172;2023-01-08T06:36:04;10.10;99.90
20182;DHT22;10250;50.756;6.172;2023-01-08T06:38:04;10.20;99.90
20182;DHT22;10250;50.756;6.172;2023-01-08T06:40:05;10.20;99.90
20182;DHT22;10250;50.756;6.172;2023-01-08T06:42:06;10.20;99.90
20182;DHT22;10250;50.756;6.172;2023-01-08T06:44:06;10.30;95.20
20182;DHT22;10250;50.756;6.172;2023-01-08T06:46:08;10.20;99.90
20182;DHT22;10250;50.756;6.172;2023-01-08T06:48:09;10.20;99.90
20182;DHT22;10250;50.756;6.172;2023-01-08T06:50:10;10.30;99.90
20182;DHT22;10250;50.756;6.172;2023-01-08T06:52:11;10.30;99.90
20182;DHT22;10250;50.756;6.172;2023-01-08T06:54:12;10.30;99.90
20182;DHT22;10250;50.756;6.172;2023-01-08T06:56:12;10.20;99.90
20182;DHT22;10250;50.756;6.172;2023-01-08T06:58:13;10.20;99.90
20182;DHT22;10250;50.756;6.172;2023-01-08T07:00:14;10.20;99.90
20182;DHT22;10250;50.756;6.172;2023-01-08T07:02:16;10.20;99.90
20182;DHT22;10250;50.756;6.172;2023-01-08T07:04:17;10.10;99.80
20182;DHT22;10250;50.756;6.172;2023-01-08T07:06:20;10.10;99.90
20182;DHT22;10250;50.756;6.172;2023-01-08T07:08:21;10.10;99.90
20182;DHT22;10250;50.756;6.172;2023-01-08T07:10:22;10.10;99.90
20182;DHT22;10250;50.756;6.172;2023-01-08T07:12:23;10.20;99.90
20182;DHT22;10250;50.756;6.172;2023-01-08T07:14:24;10.00;99.90
20182;DHT22;10250;50.756;6.172;2023-01-08T07:16:24;10.00;99.90
20182;DHT22;10250;50.756;6.172;2023-01-08T07:18:25;10.00;99.90
20182;DHT22;10250;50.756;6.172;2023-01-08T07:20:25;9.90;1.00
20182;DHT22;10250;50.756;6.172;2023-01-08T07:22:26;10.00;99.90
20182;DHT22;10250;50.756;6.172;2023-01-08T07:24:27;10.00;1.00
20182;DHT22;10250;50.756;6.172;2023-01-08T07:26:28;10.00;99.90
20182;DHT22;10250;50.756;6.172;2023-01-08T07:28:29;10.10;99.90
20182;DHT22;10250;50.756;6.172;2023-01-08T07:30:30;9.90;99.90
20182;DHT22;10250;50.756;6.172;2023-01-08T07:32:30;10.10;99.90
20182;DHT22;10250;50.756;6.172;2023-01-08T07:34:31;10.20;44.40
20182;DHT22;10250;50.756;6.172;2023-01-08T07:36:33;10.00;11.90
20182;DHT22;10250;50.756;6.172;2023-01-08T07:38:34;10.00;99.90
20182;DHT22;10250;50.756;6.172;2023-01-08T07:40:35;10.10;1.00
20182;DHT22;10250;50.756;6.172;2023-01-08T07:42:36;9.90;6.70
20182;DHT22;10250;50.756;6.172;2023-01-08T07:44:36;9.90;99.90
20182;DHT22;10250;50.756;6.172;2023-01-08T07:46:37;9.90;99.90
20182;DHT22;10250;50.756;6.172;2023-01-08T07:48:37;10.00;99.90
20182;DHT22;10250;50.756;6.172;2023-01-08T07:50:38;10.00;99.90
20182;DHT22;10250;50.756;6.172;2023-01-08T07:52:39;9.90;1.00
20182;DHT22;10250;50.756;6.172;2023-01-08T07:56:46;9.90;61.70
20182;DHT22;10250;50.756;6.172;2023-01-08T07:58:47;9.80;99.90
20182;DHT22;10250;50.756;6.172;2023-01-08T08:00:48;9.90;99.90
20182;DHT22;10250;50.756;6.172;2023-01-08T08:02:48;9.80;99.90
20182;DHT22;10250;50.756;6.172;2023-01-08T08:04:49;9.70;61.90
20182;DHT22;10250;50.756;6.172;2023-01-08T08:06:50;9.70;99.90
20182;DHT22;10250;50.756;6.172;2023-01-08T08:08:50;9.70;99.90
20182;DHT22;10250;50.756;6.172;2023-01-08T08:10:51;9.80;99.90
20182;DHT22;10250;50.756;6.172;2023-01-08T08:12:51;9.90;99.90
20182;DHT22;10250;50.756;6.172;2023-01-08T08:14:55;9.90;1.00
20182;DHT22;10250;50.756;6.172;2023-01-08T08:16:55;9.90;57.20
20182;DHT22;10250;50.756;6.172;2023-01-08T08:18:57;9.80;49.60
20182;DHT22;10250;50.756;6.172;2023-01-08T08:20:58;9.90;1.00
20182;DHT22;10250;50.756;6.172;2023-01-08T08:23:00;10.00;1.00
20182;DHT22;10250;50.756;6.172;2023-01-08T08:25:01;9.80;1.00
20182;DHT22;10250;50.756;6.172;2023-01-08T08:27:02;9.80;5.90
20182;DHT22;10250;50.756;6.172;2023-01-08T08:29:02;9.80;1.00
20182;DHT22;10250;50.756;6.172;2023-01-08T08:31:03;9.90;62.20
20182;DHT22;10250;50.756;6.172;2023-01-08T08:33:05;9.90;50.90
20182;DHT22;10250;50.756;6.172;2023-01-08T08:35:06;10.00;1.00
20182;DHT22;10250;50.756;6.172;2023-01-08T08:37:07;10.00;1.00
20182;DHT22;10250;50.756;6.172;2023-01-08T08:39:08;9.90;1.00
20182;DHT22;10250;50.756;6.172;2023-01-08T08:41:08;9.90;1.00
20182;DHT22;10250;50.756;6.172;2023-01-08T08:43:09;9.90;1.00
20182;DHT22;10250;50.756;6.172;2023-01-08T08:45:10;10.00;1.00
20182;DHT22;10250;50.756;6.172;2023-01-08T08:47:10;10.00;1.00
20182;DHT22;10250;50.756;6.172;2023-01-08T08:49:11;10.00;1.00
20182;DHT22;10250;50.756;6.172;2023-01-08T08:51:12;10.00;1.00
20182;DHT22;10250;50.756;6.172;2023-01-08T08:53:13;10.00;1.00
20182;DHT22;10250;50.756;6.172;2023-01-08T08:55:14;10.00;1.00
20182;DHT22;10250;50.756;6.172;2023-01-08T08:57:18;9.90;1.00
20182;DHT22;10250;50.756;6.172;2023-01-08T08:59:18;10.00;1.00
20182;DHT22;10250;50.756;6.172;2023-01-08T09:01:19;10.10;1.00
20182;DHT22;10250;50.756;6.172;2023-01-08T09:03:19;10.10;1.00
20182;DHT22;10250;50.756;6.172;2023-01-08T09:05:20;10.10;1.00
20182;DHT22;10250;50.756;6.172;2023-01-08T09:07:21;10.20;1.00
20182;DHT22;10250;50.756;6.172;2023-01-08T09:09:21;10.10;1.00
20182;DHT22;10250;50.756;6.172;2023-01-08T09:11:22;10.20;1.00
20182;DHT22;10250;50.756;6.172;2023-01-08T09:13:22;10.20;1.00
20182;DHT22;10250;50.756;6.172;2023-01-08T09:15:23;10.20;1.00
20182;DHT22;10250;50.756;6.172;2023-01-08T09:17:23;10.30;1.00
20182;DHT22;10250;50.756;6.172;2023-01-08T09:19:27;10.30;1.00
20182;DHT22;10250;50.756;6.172;2023-01-08T09:21:27;10.10;1.00
20182;DHT22;10250;50.756;6.172;2023-01-08T09:23:28;10.30;1.00
20182;DHT22;10250;50.756;6.172;2023-01-08T09:25:29;10.30;1.00
20182;DHT22;10250;50.756;6.172;2023-01-08T09:27:30;10.30;1.00
20182;DHT22;10250;50.756;6.172;2023-01-08T09:29:31;10.40;1.00
20182;DHT22;10250;50.756;6.172;2023-01-08T09:31:33;10.30;1.00
20182;DHT22;10250;50.756;6.172;2023-01-08T09:33:33;10.20;1.00
20182;DHT22;10250;50.756;6.172;2023-01-08T09:35:34;10.10;1.00
20182;DHT22;10250;50.756;6.172;2023-01-08T09:37:34;10.20;1.00
20182;DHT22;10250;50.756;6.172;2023-01-08T09:39:35;10.30;1.00
20182;DHT22;10250;50.756;6.172;2023-01-08T09:41:40;10.40;1.00
20182;DHT22;10250;50.756;6.172;2023-01-08T09:43:44;10.30;1.00
20182;DHT22;10250;50.756;6.172;2023-01-08T09:45:55;10.40;1.00
20182;DHT22;10250;50.756;6.172;2023-01-08T09:48:00;10.50;1.00
20182;DHT22;10250;50.756;6.172;2023-01-08T09:50:08;10.50;1.00
20182;DHT22;10250;50.756;6.172;2023-01-08T09:52:11;10.50;1.00
20182;DHT22;10250;50.756;6.172;2023-01-08T09:54:15;10.50;1.00
20182;DHT22;10250;50.756;6.172;2023-01-08T09:56:17;10.60;1.00
20182;DHT22;10250;50.756;6.172;2023-01-08T10:00:33;10.40;99.90
20182;DHT22;10250;50.756;6.172;2023-01-08T10:02:35;10.30;1.00
20182;DHT22;10250;50.756;6.172;2023-01-08T10:04:38;10.50;1.00
20182;DHT22;10250;50.756;6.172;2023-01-08T10:06:51;10.50;1.00
20182;DHT22;10250;50.756;6.172;2023-01-08T10:08:52;10.50;1.00
20182;DHT22;10250;50.756;6.172;2023-01-08T10:10:53;10.60;1.00
20182;DHT22;10250;50.756;6.172;2023-01-08T10:12:54;10.70;99.90
20182;DHT22;10250;50.756;6.172;2023-01-08T10:15:07;10.80;99.90
20182;DHT22;10250;50.756;6.172;2023-01-08T10:19:14;11.00;99.90
20182;DHT22;10250;50.756;6.172;2023-01-08T10:21:15;10.90;99.90
20182;DHT22;10250;50.756;6.172;2023-01-08T10:23:19;10.90;99.90
20182;DHT22;10250;50.756;6.172;2023-01-08T10:25:24;10.90;99.90
20182;DHT22;10250;50.756;6.172;2023-01-08T10:27:25;10.80;99.90
20182;DHT22;10250;50.756;6.172;2023-01-08T10:29:25;10.70;1.00
20182;DHT22;10250;50.756;6.172;2023-01-08T10:31:26;10.70;1.00
20182;DHT22;10250;50.756;6.172;2023-01-08T10:33:41;10.80;1.00
20182;DHT22;10250;50.756;6.172;2023-01-08T10:35:49;10.70;1.00
20182;DHT22;10250;50.756;6.172;2023-01-08T10:37:50;10.90;1.00
20182;DHT22;10250;50.756;6.172;2023-01-08T10:39:53;10.80;1.00
20182;DHT22;10250;50.756;6.172;2023-01-08T10:42:03;10.90;1.00
20182;DHT22;10250;50.756;6.172;2023-01-08T10:44:06;10.90;1.00
20182;DHT22;10250;50.756;6.172;2023-01-08T10:46:41;11.00;1.00
20182;DHT22;10250;50.756;6.172;2023-01-08T10:48:46;10.90;99.90
20182;DHT22;10250;50.756;6.172;2023-01-08T10:50:48;10.90;99.90
20182;DHT22;10250;50.756;6.172;2023-01-08T10:53:00;10.90;1.00
20182;DHT22;10250;50.756;6.172;2023-01-08T10:55:23;10.90;99.90
20182;DHT22;10250;50.756;6.172;2023-01-08T10:57:28;11.10;99.90
20182;DHT22;10250;50.756;6.172;2023-01-08T10:59:29;11.10;99.90
20182;DHT22;10250;50.756;6.172;2023-01-08T11:01:31;11.10;99.90
20182;DHT22;10250;50.756;6.172;2023-01-08T11:03:32;11.00;99.90
20182;DHT22;10250;50.756;6.172;2023-01-08T11:05:35;10.80;99.90
20182;DHT22;10250;50.756;6.172;2023-01-08T11:07:36;10.90;99.90
20182;DHT22;10250;50.756;6.172;2023-01-08T11:09:45;10.80;99.90
20182;DHT22;10250;50.756;6.172;2023-01-08T11:11:47;10.90;99.90
20182;DHT22;10250;50.756;6.172;2023-01-08T11:13:57;11.00;99.90
20182;DHT22;10250;50.756;6.172;2023-01-08T11:16:05;10.90;99.90
20182;DHT22;10250;50.756;6.172;2023-01-08T11:18:23;11.10;99.90
20182;DHT22;10250;50.756;6.172;2023-01-08T11:20:29;10.90;99.90
20182;DHT22;10250;50.756;6.172;2023-01-08T11:22:30;10.80;99.90
20182;DHT22;10250;50.756;6.172;2023-01-08T11:24:35;11.10;99.90
20182;DHT22;10250;50.756;6.172;2023-01-08T11:26:38;11.10;99.90
20182;DHT22;10250;50.756;6.172;2023-01-08T11:31:12;10.90;99.90
20182;DHT22;10250;50.756;6.172;2023-01-08T11:33:17;10.80;99.90
20182;DHT22;10250;50.756;6.172;2023-01-08T11:35:27;10.90;99.90
20182;DHT22;10250;50.756;6.172;2023-01-08T11:37:39;11.00;99.90
20182;DHT22;10250;50.756;6.172;2023-01-08T11:39:40;11.10;99.90
20182;DHT22;10250;50.756;6.172;2023-01-08T11:41:44;11.20;99.90
20182;DHT22;10250;50.756;6.172;2023-01-08T11:50:26;11.10;99.90
20182;DHT22;10250;50.756;6.172;2023-01-08T11:52:38;10.90;99.90
20182;DHT22;10250;50.756;6.172;2023-01-08T11:59:36;10.70;99.90
20182;DHT22;10250;50.756;6.172;2023-01-08T12:09:06;11.10;99.90
20182;DHT22;10250;50.756;6.172;2023-01-08T12:11:24;10.80;99.90
20182;DHT22;10250;50.756;6.172;2023-01-08T12:21:40;10.80;99.90
20182;DHT22;10250;50.756;6.172;2023-01-08T12:31:09;10.70;99.90
20182;DHT22;10250;50.756;6.172;2023-01-08T12:35:46;10.90;99.90
20182;DHT22;10250;50.756;6.172;2023-01-08T12:37:50;10.90;94.90
20182;DHT22;10250;50.756;6.172;2023-01-08T12:40:11;10.80;94.50
20182;DHT22;10250;50.756;6.172;2023-01-08T12:42:17;10.80;94.60
20182;DHT22;10250;50.756;6.172;2023-01-08T12:44:23;10.80;91.70
20182;DHT22;10250;50.756;6.172;2023-01-08T12:46:29;10.80;99.90
20182;DHT22;10250;50.756;6.172;2023-01-08T12:48:32;10.90;98.00
20182;DHT22;10250;50.756;6.172;2023-01-08T12:55:45;10.90;71.40
20182;DHT22;10250;50.756;6.172;2023-01-08T12:57:29;11.10;70.20
20182;DHT22;10250;50.756;6.172;2023-01-08T13:00:00;10.90;67.30
20182;DHT22;10250;50.756;6.172;2023-01-08T13:04:42;10.80;90.90
20182;DHT22;10250;50.756;6.172;2023-01-08T13:06:50;10.90;90.00
20182;DHT22;10250;50.756;6.172;2023-01-08T13:08:55;10.90;94.70
20182;DHT22;10250;50.756;6.172;2023-01-08T13:10:57;10.90;90.20
20182;DHT22;10250;50.756;6.172;2023-01-08T13:12:58;10.90;99.90
20182;DHT22;10250;50.756;6.172;2023-01-08T13:15:01;10.90;90.50
20182;DHT22;10250;50.756;6.172;2023-01-08T13:17:14;10.90;91.70
20182;DHT22;10250;50.756;6.172;2023-01-08T13:19:36;10.80;75.30
20182;DHT22;10250;50.756;6.172;2023-01-08T13:21:49;10.90;94.20
20182;DHT22;10250;50.756;6.172;2023-01-08T13:24:40;10.90;91.20
20182;DHT22;10250;50.756;6.172;2023-01-08T13:26:29;10.70;53.90
20182;DHT22;10250;50.756;6.172;2023-01-08T13:30:41;10.70;65.80
20182;DHT22;10250;50.756;6.172;2023-01-08T13:32:45;10.70;77.30
20182;DHT22;10250;50.756;6.172;2023-01-08T13:34:47;10.70;81.50
20182;DHT22;10250;50.756;6.172;2023-01-08T13:36:57;10.80;90.10
20182;DHT22;10250;50.756;6.172;2023-01-08T13:41:35;10.90;86.80
20182;DHT22;10250;50.756;6.172;2023-01-08T13:43:39;11.10;56.10
20182;DHT22;10250;50.756;6.172;2023-01-08T13:45:41;10.90;51.10
20182;DHT22;10250;50.756;6.172;2023-01-08T13:47:43;10.70;53.40
20182;DHT22;10250;50.756;6.172;2023-01-08T13:49:48;10.80;84.80
20182;DHT22;10250;50.756;6.172;2023-01-08T13:51:50;10.90;72.90
20182;DHT22;10250;50.756;6.172;2023-01-08T13:53:51;10.80;72.10
20182;DHT22;10250;50.756;6.172;2023-01-08T13:55:56;10.80;64.00
20182;DHT22;10250;50.756;6.172;2023-01-08T13:58:00;10.70;50.70
20182;DHT22;10250;50.756;6.172;2023-01-08T14:00:05;10.80;77.30
20182;DHT22;10250;50.756;6.172;2023-01-08T14:02:27;10.80;63.20
20182;DHT22;10250;50.756;6.172;2023-01-08T14:04:28;10.80;52.10
20182;DHT22;10250;50.756;6.172;2023-01-08T14:06:29;10.70;57.00
20182;DHT22;10250;50.756;6.172;2023-01-08T14:08:30;10.80;69.30
20182;DHT22;10250;50.756;6.172;2023-01-08T14:10:31;10.70;64.00
20182;DHT22;10250;50.756;6.172;2023-01-08T14:12:33;10.70;90.10
20182;DHT22;10250;50.756;6.172;2023-01-08T14:14:37;10.80;91.60
20182;DHT22;10250;50.756;6.172;2023-01-08T14:16:39;10.80;66.10
20182;DHT22;10250;50.756;6.172;2023-01-08T14:18:41;10.70;67.40
20182;DHT22;10250;50.756;6.172;2023-01-08T14:20:43;10.70;81.20
20182;DHT22;10250;50.756;6.172;2023-01-08T14:22:47;10.80;87.10